Latest Weather Observations for Scone Airport

IDN60801

Issued at 8:32 pm EDT Friday 12 February 2016 (issued every 30 minutes, with the page automatically refreshed every 10 minutes)

About weather observations | Map of weather stations | Latest weather observations for NSW | Other Formats
Station Details ID: 061363 Name: SCONE AIRPORT AWS Lat: -32.03 Lon: 150.83 Height: 221.4 m
Data from the previous 72 hours. | See also: Recent months at Scone Airport
Date/Time
EDT
Temp
°C
App
Temp
°C
Dew
Point
Rel
Hum
%
Delta-T
°C
Wind Press
QNH
hPa
Press
MSL
hPa
Rain
since 9 am
mm
Dir
 
Spd
km/h
Gust
km/h
Spd
kts
Gust
kts
12/08:30pm 24.5 23.5 14.6 54 5.9 SSE 13 17 7 9 1013.7 1012.6 0.0
12/08:00pm 25.3 23.0 14.1 50 6.7 SE 19 22 10 12 1013.6 1012.5 0.0
12/07:30pm 26.7 23.8 14.1 46 7.6 SSE 22 30 12 16 1013.3 1012.2 0.0
12/07:00pm 28.0 24.8 13.1 39 8.9 SE 22 30 12 16 1012.9 1011.8 0.0
12/06:30pm 28.9 24.7 13.6 39 9.2 SE 28 35 15 19 1012.6 1011.5 0.0
12/06:00pm 29.6 26.4 14.2 39 9.4 SSE 24 33 13 18 1012.6 1011.5 0.0
12/05:30pm 30.2 26.4 13.5 36 10.1 SSE 26 33 14 18 1012.5 1011.4 0.0
12/05:00pm 30.5 26.9 12.9 34 10.5 SE 24 33 13 18 1012.5 1011.4 0.0
12/04:30pm 31.3 29.0 14.0 35 10.6 SE 19 32 10 17 1012.6 1011.5 0.0
12/04:00pm 31.2 28.6 13.9 35 10.5 SE 20 28 11 15 1012.7 1011.6 0.0
12/03:30pm 31.5 29.2 14.6 36 10.4 SSE 20 28 11 15 1013.0 1011.9 0.0
12/03:00pm 31.5 30.1 15.5 38 10.0 SSE 17 30 9 16 1013.2 1012.1 0.0
12/02:30pm 31.6 30.9 16.4 40 9.6 SSE 15 26 8 14 1013.7 1012.6 0.0
12/02:00pm 30.2 28.8 15.5 41 9.1 S 17 22 9 12 1014.2 1013.1 0.0
12/01:30pm 29.9 30.6 17.0 45 8.2 SSE 9 15 5 8 1014.5 1013.4 0.0
12/01:00pm 28.9 28.0 15.8 45 8.1 SSE 15 20 8 11 1015.0 1013.9 0.0
12/12:30pm 28.5 27.8 16.4 48 7.6 SSE 15 24 8 13 1015.5 1014.5 0.0
12/12:00pm 27.2 27.3 16.5 52 6.7 SE 11 20 6 11 1015.9 1014.9 0.0
12/11:30am 27.1 28.0 17.6 56 6.0 E 9 15 5 8 1016.2 1015.2 0.0
12/11:00am 25.3 25.6 17.0 60 5.2 SSW 11 17 6 9 1016.4 1015.4 0.0
12/10:30am 23.7 23.9 16.7 65 4.3 SSE 11 19 6 10 1016.7 1015.6 0.0
12/10:00am 22.9 23.1 17.6 72 3.3 SSW 13 20 7 11 1017.0 1015.9 0.0
12/09:30am 22.6 22.8 17.7 74 3.1 S 13 19 7 10 1017.0 1015.9 0.0
12/09:00am 22.0 23.0 18.6 81 2.2 SSE 11 17 6 9 1016.8 1015.7 0.0
12/08:30am 20.6 21.6 18.7 89 1.2 S 11 15 6 8 1016.5 1015.5 0.0
12/08:00am 19.9 21.6 18.4 91 0.9 SSE 7 9 4 5 1016.1 1015.1 0.0
12/07:30am 19.7 21.4 18.4 92 0.8 ESE 7 11 4 6 1015.7 1014.7 0.0
12/07:00am 19.5 21.1 18.2 92 0.8 SSE 7 11 4 6 1015.6 1014.6 0.0
12/06:30am 19.4 21.0 17.9 91 0.9 S 6 7 3 4 1015.2 1014.1 0.0
12/06:00am 19.5 20.6 18.0 91 0.9 S 9 13 5 7 1015.0 1013.9 0.0
12/05:30am 19.7 21.4 18.4 92 0.8 SE 7 9 4 5 1014.6 1013.5 0.0
12/05:00am 19.5 21.3 18.2 92 0.8 E 6 11 3 6 1014.3 1013.2 0.0
12/04:30am 18.7 20.6 17.7 94 0.6 NW 4 6 2 3 1014.5 1013.4 0.0
12/04:00am 17.8 18.9 17.2 96 0.4 NNW 7 9 4 5 1014.5 1013.4 0.0
12/03:30am 17.5 19.0 15.8 90 1.0 NW 2 7 1 4 1014.3 1013.2 0.0
12/03:00am 18.7 21.0 16.7 88 1.2 CALM 0 0 0 0 1014.4 1013.3 0.0
12/02:30am 19.6 21.1 17.7 89 1.2 SE 6 11 3 6 1014.8 1013.7 0.0
12/02:00am 19.6 20.0 18.1 91 0.9 S 13 17 7 9 1014.9 1013.8 0.0
12/01:30am 18.8 20.0 16.9 89 1.2 SSW 6 9 3 5 1014.5 1013.4 0.0
12/01:00am 18.9 21.2 16.7 87 1.3 CALM 0 7 0 4 1014.6 1013.5 0.0
12/12:30am 19.3 20.4 16.5 84 1.7 SSE 6 13 3 7 1014.6 1013.5 0.0
12/12:00am 20.0 21.0 16.8 82 2.0 SSW 7 11 4 6 1014.8 1013.7 0.0
 
Date/Time
EDT
Temp
°C
App
Temp
°C
Dew
Point
Rel
Hum
%
Delta-T
°C
Wind Press
QNH
hPa
Press
MSL
hPa
Rain
since 9 am
mm
Dir
 
Spd
km/h
Gust
km/h
Spd
kts
Gust
kts
11/11:30pm 20.4 21.5 16.6 79 2.3 WSW 6 7 3 4 1014.6 1013.5 0.0
11/11:00pm 21.4 22.0 16.8 75 2.8 SSE 9 13 5 7 1014.8 1013.7 0.0
11/10:30pm 22.1 21.9 16.8 72 3.3 S 13 17 7 9 1015.2 1014.1 0.0
11/10:00pm 22.9 20.6 16.7 68 3.8 SSE 24 35 13 19 1015.1 1014.0 0.0
11/09:30pm 23.6 20.7 17.1 67 4.0 SSE 28 37 15 20 1015.0 1013.9 0.0
11/09:00pm 24.1 20.6 17.4 66 4.2 SSE 32 39 17 21 1014.3 1013.2 0.0
11/08:30pm 25.0 22.4 17.7 64 4.6 SSE 28 39 15 21 1013.7 1012.6 0.0
11/08:00pm 25.8 23.0 17.4 59 5.3 S 28 39 15 21 1013.1 1012.0 0.0
11/07:30pm 26.8 24.7 16.1 52 6.6 S 22 28 12 15 1012.4 1011.3 0.0
11/07:00pm 27.9 25.7 14.9 45 8.0 S 20 30 11 16 1011.6 1010.6 0.0
11/06:30pm 28.9 25.7 14.3 40 8.9 SSE 24 35 13 19 1010.7 1009.6 0.0
11/06:00pm 30.3 27.5 14.4 38 9.7 SE 22 28 12 15 1010.8 1009.7 0.0
11/05:30pm 31.0 27.9 13.3 34 10.7 SE 22 30 12 16 1011.0 1009.9 0.0
11/05:00pm 31.1 28.4 13.4 34 10.7 SE 20 28 11 15 1011.1 1010.0 0.0
11/04:30pm 31.5 28.4 12.3 31 11.4 SSE 20 30 11 16 1011.3 1010.2 0.0
11/04:00pm 31.8 28.0 9.9 26 12.6 SSE 20 32 11 17 1011.6 1010.6 0.0
11/03:30pm 32.6 29.5 12.3 29 12.1 SSE 20 30 11 16 1012.1 1011.0 0.0
11/03:00pm 31.9 28.6 11.7 29 11.9 S 20 32 11 17 1012.4 1011.3 0.0
11/02:30pm 31.3 27.4 12.2 31 11.3 S 24 33 13 18 1012.9 1011.8 0.0
11/02:00pm 31.3 28.1 13.1 33 11.0 SSE 22 30 12 16 1013.1 1012.0 0.0
11/01:30pm 30.9 27.5 11.3 30 11.5 SSE 20 30 11 16 1013.3 1012.2 0.0
11/01:00pm 29.8 27.9 15.1 40 9.1 SSE 19 26 10 14 1013.5 1012.4 0.0
11/12:30pm 29.2 26.8 12.6 36 9.8 SE 17 24 9 13 1013.8 1012.7 0.0
11/12:00pm 27.9 27.1 15.2 46 7.8 SE 13 22 7 12 1014.2 1013.1 0.0
11/11:30am 27.0 26.6 16.3 52 6.7 S 13 19 7 10 1014.4 1013.3 0.0
11/11:00am 26.2 26.2 16.2 54 6.2 SE 11 19 6 10 1014.7 1013.6 0.0
11/10:30am 25.5 25.6 16.4 57 5.6 SSE 11 19 6 10 1014.8 1013.7 0.0
11/10:00am 24.1 24.4 16.1 61 4.9 S 9 15 5 8 1015.0 1013.9 0.0
11/09:30am 22.3 23.7 16.3 69 3.7 SSW 4 7 2 4 1015.2 1014.1 0.0
11/09:00am 21.3 23.4 16.3 73 3.0 CALM 0 6 0 3 1015.1 1014.0 0.0
11/08:30am 19.9 22.0 16.2 79 2.2 CALM 0 0 0 0 1015.2 1014.1 0.0
11/08:00am 17.2 18.8 14.8 86 1.4 CALM 0 0 0 0 1015.0 1013.9 0.0
11/07:30am 14.9 16.4 14.7 99 0.1 CALM 0 0 0 0 1014.7 1013.6 0.0
11/07:00am 12.9 13.7 12.6 98 0.2 CALM 0 0 0 0 1014.4 1013.3 0.0
11/06:30am 12.6 13.3 12.1 97 0.3 CALM 0 0 0 0 1014.0 1012.9 0.0
11/06:00am 12.9 13.7 12.4 97 0.3 CALM 0 0 0 0 1013.7 1012.6 0.0
11/05:30am 13.0 13.7 12.1 94 0.5 CALM 0 0 0 0 1013.3 1012.2 0.0
11/05:00am 13.4 14.1 12.3 93 0.6 CALM 0 0 0 0 1013.0 1011.9 0.0
11/04:30am 13.5 14.3 12.6 94 0.5 CALM 0 0 0 0 1013.0 1011.9 0.0
11/04:00am 13.8 14.6 12.7 93 0.6 CALM 0 0 0 0 1012.9 1011.8 0.0
11/03:30am 14.2 15.1 12.8 91 0.8 CALM 0 0 0 0 1013.0 1011.9 0.0
11/03:00am 14.8 15.8 13.2 90 0.9 CALM 0 0 0 0 1013.0 1011.9 0.0
11/02:30am 15.1 16.1 13.3 89 1.0 CALM 0 0 0 0 1013.0 1011.9 0.0
11/02:00am 15.1 16.0 12.8 86 1.3 CALM 0 0 0 0 1013.2 1012.1 0.0
11/01:30am 15.6 16.7 13.4 87 1.2 CALM 0 0 0 0 1013.4 1012.3 0.0
11/01:00am 15.8 16.8 13.1 84 1.5 CALM 0 0 0 0 1013.4 1012.3 0.0
11/12:30am 16.3 17.2 13.0 81 1.9 CALM 0 0 0 0 1013.5 1012.4 0.0
11/12:00am 17.1 18.1 13.2 78 2.2 CALM 0 0 0 0 1013.6 1012.5 0.0
 
Date/Time
EDT
Temp
°C
App
Temp
°C
Dew
Point
Rel
Hum
%
Delta-T
°C
Wind Press
QNH
hPa
Press
MSL
hPa
Rain
since 9 am
mm
Dir
 
Spd
km/h
Gust
km/h
Spd
kts
Gust
kts
10/11:30pm 17.8 17.8 13.7 77 2.4 ESE 6 7 3 4 1013.5 1012.4 0.0
10/11:00pm 18.7 18.7 13.6 72 2.9 SSE 6 13 3 7 1013.5 1012.4 0.0
10/10:30pm 18.8 19.4 13.2 70 3.2 SSE 2 9 1 5 1013.5 1012.4 0.0
10/10:00pm 19.7 20.7 13.2 66 3.7 CALM 0 0 0 0 1013.4 1012.3 0.0
10/09:30pm 20.1 20.2 12.8 63 4.2 SW 4 7 2 4 1013.3 1012.2 0.0
10/09:00pm 20.8 20.5 12.8 60 4.6 W 6 7 3 4 1012.9 1011.8 0.0
10/08:30pm 22.4 21.5 12.6 54 5.6 SSW 9 13 5 7 1012.8 1011.7 0.0
10/08:00pm 23.8 22.0 12.1 48 6.7 S 13 15 7 8 1012.5 1011.4 0.0
10/07:30pm 26.6 24.9 12.3 41 8.3 S 13 15 7 8 1012.2 1011.1 0.0
10/07:00pm 28.5 25.9 12.0 36 9.7 S 17 20 9 11 1011.9 1010.8 0.0
10/06:30pm 29.6 27.2 12.5 35 10.1 S 17 22 9 12 1011.6 1010.6 0.0
10/06:00pm 30.4 27.4 11.9 32 10.9 S 19 26 10 14 1011.5 1010.5 0.0
10/05:30pm 30.9 28.2 11.8 31 11.3 SSE 17 26 9 14 1011.4 1010.3 0.0
10/05:00pm 31.3 29.4 11.7 30 11.6 S 13 22 7 12 1011.5 1010.5 0.0
10/04:30pm 31.5 29.4 12.3 31 11.4 S 15 22 8 12 1011.9 1010.8 0.0
10/04:00pm 30.6 28.4 12.0 32 11.0 SSE 15 22 8 12 1012.2 1011.1 0.0
10/03:30pm 30.0 28.0 11.5 32 10.8 SSE 13 20 7 11 1012.5 1011.4 0.0
10/03:00pm 30.0 27.9 8.4 26 12.0 ESE 9 17 5 9 1012.9 1011.8 0.0
10/02:30pm 30.0 27.6 10.0 29 11.4 SSE 13 20 7 11 1013.3 1012.2 0.0
10/02:00pm 29.3 27.4 10.4 31 10.8 SSE 11 19 6 10 1013.9 1012.8 0.0
10/01:30pm 28.2 26.6 11.7 36 9.6 SE 11 19 6 10 1014.3 1013.2 0.0
10/01:00pm 28.2 28.0 12.9 38 9.1 SSE 6 15 3 8 1014.7 1013.6 0.0
10/12:30pm 27.2 26.5 13.2 42 8.3 NE 9 13 5 7 1015.2 1014.1 0.0
10/12:00pm 25.9 25.5 12.4 43 7.9 NNW 6 11 3 6 1015.8 1014.8 0.0
10/11:30am 25.8 25.1 13.3 46 7.4 SE 9 13 5 7 1016.2 1015.2 0.0
10/11:00am 24.2 24.2 14.3 54 5.9 WSW 7 11 4 6 1016.5 1015.5 0.0
10/10:30am 22.3 23.2 16.1 68 3.8 E 6 9 3 5 1016.8 1015.7 0.0
10/10:00am 20.3 22.5 17.5 84 1.7 E 2 6 1 3 1017.1 1016.0 0.0
10/09:30am 17.8 20.3 17.2 96 0.4 CALM 0 6 0 3 1017.3 1016.2 0.0
10/09:00am 16.8 18.7 16.6 99 0.1 SW 2 7 1 4 1017.3 1016.2 0.0
10/08:30am 16.5 17.5 16.3 99 0.1 W 6 7 3 4 1017.3 1016.2 0.0
10/08:00am 15.4 15.8 15.2 99 0.1 WNW 7 9 4 5 1017.1 1016.0 0.0
10/07:30am 14.8 15.1 14.6 99 0.1 WNW 6 7 3 4 1016.9 1015.8 0.0
10/07:00am 14.0 13.9 13.8 99 0.1 WNW 7 7 4 4 1016.8 1015.7 0.0
10/06:30am 14.6 16.0 14.4 99 0.1 CALM 0 0 0 0 1016.5 1015.5 0.0
10/06:00am 13.9 15.1 13.7 99 0.1 CALM 0 0 0 0 1016.4 1015.4 0.0
10/05:30am 13.9 13.9 13.7 99 0.1 WNW 6 9 3 5 1016.3 1015.3 0.0
10/05:00am 12.9 13.7 12.6 98 0.2 CALM 0 0 0 0 1016.0 1015.0 0.0
10/04:30am 13.6 14.6 13.3 98 0.2 CALM 0 0 0 0 1015.9 1014.9 0.0
10/04:00am 13.1 13.9 12.5 96 0.3 CALM 0 0 0 0 1016.1 1015.1 0.0
10/03:30am 13.6 14.5 12.8 95 0.4 CALM 0 0 0 0 1016.2 1015.2 0.0
10/03:00am 14.4 15.6 13.9 97 0.3 CALM 0 0 0 0 1016.3 1015.3 0.0
10/02:30am 14.4 15.5 13.4 94 0.6 CALM 0 0 0 0 1016.7 1015.6 0.0
10/02:00am 15.6 17.0 14.3 92 0.7 CALM 0 0 0 0 1016.9 1015.8 0.0
10/01:30am 16.1 17.4 14.1 88 1.1 CALM 0 0 0 0 1017.3 1016.2 0.0
10/01:00am 17.6 18.0 15.2 86 1.4 SSE 7 15 4 8 1017.3 1016.2 0.0
10/12:30am 18.5 17.3 16.1 86 1.4 S 17 19 9 10 1017.5 1016.4 0.0
10/12:00am 18.7 18.0 16.3 86 1.4 S 15 19 8 10 1017.8 1016.7 0.0
 
Date/Time
EDT
Temp
°C
App
Temp
°C
Dew
Point
Rel
Hum
%
Delta-T
°C
Wind Press
QNH
hPa
Press
MSL
hPa
Rain
since 9 am
mm
Dir
 
Spd
km/h
Gust
km/h
Spd
kts
Gust
kts
09/11:30pm 18.8 18.1 16.4 86 1.5 SSW 15 19 8 10 1018.0 1016.9 0.0
09/11:00pm 18.8 18.4 16.2 85 1.6 SSW 13 17 7 9 1018.0 1016.9 0.0
09/10:30pm 19.1 18.7 16.1 83 1.8 SSW 13 17 7 9 1018.0 1016.9 0.0
09/10:00pm 19.9 19.1 16.2 79 2.2 S 15 19 8 10 1018.0 1016.9 0.0
09/09:30pm 20.5 19.3 16.1 76 2.7 S 17 20 9 11 1018.0 1016.9 0.0
09/09:00pm 21.5 20.7 16.0 71 3.3 SSE 15 22 8 12 1017.7 1016.6 0.0

Other Formats:

Comma delimited format used in spreadsheet applications
http://www.bom.gov.au/fwo/IDN60801/IDN60801.95758.axf

JavaScript Object Notation format (JSON) in row-major order
http://www.bom.gov.au/fwo/IDN60801/IDN60801.95758.json